sensor_id;sensor_type;location;lat;lon;timestamp;P1;durP1;ratioP1;P2;durP2;ratioP2
47309;SDS011;33046;52.270;6.832;2023-02-07T00:00:54;21.77;;;13.43;;
47309;SDS011;33046;52.270;6.832;2023-02-07T00:03:02;20.02;;;12.95;;
47309;SDS011;33046;52.270;6.832;2023-02-07T00:05:09;20.45;;;12.45;;
47309;SDS011;33046;52.270;6.832;2023-02-07T00:07:16;19.85;;;11.18;;
47309;SDS011;33046;52.270;6.832;2023-02-07T00:09:23;16.60;;;11.88;;
47309;SDS011;33046;52.270;6.832;2023-02-07T00:11:30;18.25;;;10.20;;
47309;SDS011;33046;52.270;6.832;2023-02-07T00:13:37;15.40;;;11.07;;
47309;SDS011;33046;52.270;6.832;2023-02-07T00:15:44;16.75;;;11.23;;
47309;SDS011;33046;52.270;6.832;2023-02-07T00:17:51;15.00;;;11.68;;
47309;SDS011;33046;52.270;6.832;2023-02-07T00:19:59;16.95;;;10.25;;
47309;SDS011;33046;52.270;6.832;2023-02-07T00:22:06;20.08;;;12.30;;
47309;SDS011;33046;52.270;6.832;2023-02-07T00:24:12;17.83;;;11.00;;
47309;SDS011;33046;52.270;6.832;2023-02-07T00:26:20;17.38;;;11.35;;
47309;SDS011;33046;52.270;6.832;2023-02-07T00:28:28;18.83;;;11.48;;
47309;SDS011;33046;52.270;6.832;2023-02-07T00:30:35;14.15;;;10.40;;
47309;SDS011;33046;52.270;6.832;2023-02-07T00:32:42;19.98;;;10.98;;
47309;SDS011;33046;52.270;6.832;2023-02-07T00:34:49;19.67;;;11.38;;
47309;SDS011;33046;52.270;6.832;2023-02-07T00:36:57;14.18;;;9.65;;
47309;SDS011;33046;52.270;6.832;2023-02-07T00:39:06;21.88;;;10.13;;
47309;SDS011;33046;52.270;6.832;2023-02-07T00:41:15;16.05;;;10.55;;
47309;SDS011;33046;52.270;6.832;2023-02-07T00:43:23;18.13;;;10.35;;
47309;SDS011;33046;52.270;6.832;2023-02-07T00:45:35;19.42;;;10.63;;
47309;SDS011;33046;52.270;6.832;2023-02-07T00:47:42;15.15;;;9.88;;
47309;SDS011;33046;52.270;6.832;2023-02-07T00:49:49;17.70;;;10.18;;
47309;SDS011;33046;52.270;6.832;2023-02-07T00:51:55;16.77;;;9.05;;
47309;SDS011;33046;52.270;6.832;2023-02-07T00:54:04;15.38;;;9.82;;
47309;SDS011;33046;52.270;6.832;2023-02-07T00:56:11;18.80;;;10.15;;
47309;SDS011;33046;52.270;6.832;2023-02-07T00:58:19;17.73;;;9.95;;
47309;SDS011;33046;52.270;6.832;2023-02-07T01:00:26;16.73;;;11.68;;
47309;SDS011;33046;52.270;6.832;2023-02-07T01:02:33;18.88;;;11.43;;
47309;SDS011;33046;52.270;6.832;2023-02-07T01:04:39;17.25;;;10.43;;
47309;SDS011;33046;52.270;6.832;2023-02-07T01:06:46;16.85;;;10.55;;
47309;SDS011;33046;52.270;6.832;2023-02-07T01:08:56;18.58;;;10.20;;
47309;SDS011;33046;52.270;6.832;2023-02-07T01:11:03;24.10;;;11.27;;
47309;SDS011;33046;52.270;6.832;2023-02-07T01:13:12;17.27;;;9.95;;
47309;SDS011;33046;52.270;6.832;2023-02-07T01:15:20;18.00;;;10.88;;
47309;SDS011;33046;52.270;6.832;2023-02-07T01:17:27;16.95;;;10.13;;
47309;SDS011;33046;52.270;6.832;2023-02-07T01:19:34;16.05;;;9.95;;
47309;SDS011;33046;52.270;6.832;2023-02-07T01:21:41;18.30;;;10.63;;
47309;SDS011;33046;52.270;6.832;2023-02-07T01:23:47;18.67;;;10.32;;
47309;SDS011;33046;52.270;6.832;2023-02-07T01:25:56;19.90;;;11.27;;
47309;SDS011;33046;52.270;6.832;2023-02-07T01:28:03;14.85;;;10.77;;
47309;SDS011;33046;52.270;6.832;2023-02-07T01:30:10;15.07;;;10.95;;
47309;SDS011;33046;52.270;6.832;2023-02-07T01:32:18;15.20;;;10.80;;
47309;SDS011;33046;52.270;6.832;2023-02-07T01:34:25;15.82;;;10.40;;
47309;SDS011;33046;52.270;6.832;2023-02-07T01:36:32;18.58;;;10.25;;
47309;SDS011;33046;52.270;6.832;2023-02-07T01:38:39;18.73;;;11.63;;
47309;SDS011;33046;52.270;6.832;2023-02-07T01:40:46;14.82;;;10.52;;
47309;SDS011;33046;52.270;6.832;2023-02-07T01:42:54;17.25;;;11.57;;
47309;SDS011;33046;52.270;6.832;2023-02-07T01:45:07;17.20;;;10.38;;
47309;SDS011;33046;52.270;6.832;2023-02-07T01:47:27;15.30;;;10.65;;
47309;SDS011;33046;52.270;6.832;2023-02-07T01:49:35;15.07;;;9.85;;
47309;SDS011;33046;52.270;6.832;2023-02-07T01:51:44;16.13;;;9.60;;
47309;SDS011;33046;52.270;6.832;2023-02-07T01:53:54;14.07;;;9.40;;
47309;SDS011;33046;52.270;6.832;2023-02-07T01:56:05;15.05;;;10.18;;
47309;SDS011;33046;52.270;6.832;2023-02-07T01:58:15;13.43;;;9.30;;
47309;SDS011;33046;52.270;6.832;2023-02-07T02:00:22;18.90;;;10.05;;
47309;SDS011;33046;52.270;6.832;2023-02-07T02:02:30;15.68;;;10.10;;
47309;SDS011;33046;52.270;6.832;2023-02-07T02:04:39;15.20;;;10.23;;
47309;SDS011;33046;52.270;6.832;2023-02-07T02:06:46;13.35;;;9.75;;
47309;SDS011;33046;52.270;6.832;2023-02-07T02:08:53;15.52;;;10.32;;
47309;SDS011;33046;52.270;6.832;2023-02-07T02:11:07;14.15;;;9.98;;
47309;SDS011;33046;52.270;6.832;2023-02-07T02:13:27;16.63;;;9.20;;
47309;SDS011;33046;52.270;6.832;2023-02-07T02:15:41;14.60;;;9.32;;
47309;SDS011;33046;52.270;6.832;2023-02-07T02:18:04;13.98;;;9.57;;
47309;SDS011;33046;52.270;6.832;2023-02-07T02:20:41;17.27;;;9.90;;
47309;SDS011;33046;52.270;6.832;2023-02-07T02:23:14;13.38;;;10.30;;
47309;SDS011;33046;52.270;6.832;2023-02-07T02:25:37;16.15;;;10.50;;
47309;SDS011;33046;52.270;6.832;2023-02-07T02:31:08;12.00;;;10.23;;
47309;SDS011;33046;52.270;6.832;2023-02-07T02:33:39;14.50;;;10.57;;
47309;SDS011;33046;52.270;6.832;2023-02-07T02:35:52;14.45;;;10.10;;
47309;SDS011;33046;52.270;6.832;2023-02-07T02:38:10;16.17;;;9.65;;
47309;SDS011;33046;52.270;6.832;2023-02-07T02:40:24;16.83;;;10.65;;
47309;SDS011;33046;52.270;6.832;2023-02-07T02:42:38;15.68;;;10.05;;
47309;SDS011;33046;52.270;6.832;2023-02-07T02:44:51;16.13;;;10.25;;
47309;SDS011;33046;52.270;6.832;2023-02-07T02:47:02;16.23;;;8.77;;
47309;SDS011;33046;52.270;6.832;2023-02-07T02:49:12;13.55;;;9.75;;
47309;SDS011;33046;52.270;6.832;2023-02-07T02:51:21;16.58;;;10.52;;
47309;SDS011;33046;52.270;6.832;2023-02-07T02:53:28;19.98;;;12.15;;
47309;SDS011;33046;52.270;6.832;2023-02-07T02:55:42;15.02;;;10.60;;
47309;SDS011;33046;52.270;6.832;2023-02-07T02:58:07;14.35;;;10.60;;
47309;SDS011;33046;52.270;6.832;2023-02-07T03:00:27;20.98;;;10.60;;
47309;SDS011;33046;52.270;6.832;2023-02-07T03:02:48;16.80;;;11.18;;
47309;SDS011;33046;52.270;6.832;2023-02-07T03:05:17;11.70;;;9.63;;
47309;SDS011;33046;52.270;6.832;2023-02-07T03:07:40;16.77;;;10.68;;
47309;SDS011;33046;52.270;6.832;2023-02-07T03:09:59;16.98;;;10.10;;
47309;SDS011;33046;52.270;6.832;2023-02-07T03:12:13;13.18;;;9.38;;
47309;SDS011;33046;52.270;6.832;2023-02-07T03:14:27;11.40;;;9.32;;
47309;SDS011;33046;52.270;6.832;2023-02-07T03:16:39;18.80;;;10.38;;
47309;SDS011;33046;52.270;6.832;2023-02-07T03:18:58;14.13;;;9.18;;
47309;SDS011;33046;52.270;6.832;2023-02-07T03:21:11;16.57;;;11.27;;
47309;SDS011;33046;52.270;6.832;2023-02-07T03:23:25;14.98;;;10.10;;
47309;SDS011;33046;52.270;6.832;2023-02-07T03:25:34;15.45;;;10.70;;
47309;SDS011;33046;52.270;6.832;2023-02-07T03:27:44;15.13;;;10.38;;
47309;SDS011;33046;52.270;6.832;2023-02-07T03:29:53;13.05;;;10.80;;
47309;SDS011;33046;52.270;6.832;2023-02-07T03:32:03;14.93;;;10.23;;
47309;SDS011;33046;52.270;6.832;2023-02-07T03:34:13;16.77;;;10.85;;
47309;SDS011;33046;52.270;6.832;2023-02-07T03:36:26;17.92;;;11.43;;
47309;SDS011;33046;52.270;6.832;2023-02-07T03:38:35;16.30;;;10.20;;
47309;SDS011;33046;52.270;6.832;2023-02-07T03:40:43;17.27;;;10.93;;
47309;SDS011;33046;52.270;6.832;2023-02-07T03:42:54;14.77;;;9.95;;
47309;SDS011;33046;52.270;6.832;2023-02-07T03:45:05;16.00;;;9.90;;
47309;SDS011;33046;52.270;6.832;2023-02-07T03:47:17;13.10;;;10.27;;
47309;SDS011;33046;52.270;6.832;2023-02-07T03:49:25;17.80;;;10.10;;
47309;SDS011;33046;52.270;6.832;2023-02-07T03:51:34;15.15;;;10.20;;
47309;SDS011;33046;52.270;6.832;2023-02-07T03:53:41;14.00;;;10.85;;
47309;SDS011;33046;52.270;6.832;2023-02-07T03:55:48;16.75;;;11.57;;
47309;SDS011;33046;52.270;6.832;2023-02-07T03:57:55;16.92;;;10.38;;
47309;SDS011;33046;52.270;6.832;2023-02-07T04:00:02;14.88;;;10.45;;
47309;SDS011;33046;52.270;6.832;2023-02-07T04:02:17;14.88;;;9.10;;
47309;SDS011;33046;52.270;6.832;2023-02-07T04:04:24;16.40;;;10.27;;
47309;SDS011;33046;52.270;6.832;2023-02-07T04:06:31;11.68;;;10.02;;
47309;SDS011;33046;52.270;6.832;2023-02-07T04:08:39;15.38;;;10.07;;
47309;SDS011;33046;52.270;6.832;2023-02-07T04:10:55;15.20;;;10.43;;
47309;SDS011;33046;52.270;6.832;2023-02-07T04:13:02;15.20;;;11.13;;
47309;SDS011;33046;52.270;6.832;2023-02-07T04:15:09;15.35;;;11.32;;
47309;SDS011;33046;52.270;6.832;2023-02-07T04:17:16;17.05;;;11.00;;
47309;SDS011;33046;52.270;6.832;2023-02-07T04:19:23;17.20;;;10.02;;
47309;SDS011;33046;52.270;6.832;2023-02-07T04:21:30;15.05;;;10.30;;
47309;SDS011;33046;52.270;6.832;2023-02-07T04:23:37;13.95;;;10.02;;
47309;SDS011;33046;52.270;6.832;2023-02-07T04:25:45;12.20;;;9.40;;
47309;SDS011;33046;52.270;6.832;2023-02-07T04:27:53;12.88;;;9.07;;
47309;SDS011;33046;52.270;6.832;2023-02-07T04:29:59;11.57;;;8.32;;
47309;SDS011;33046;52.270;6.832;2023-02-07T04:32:06;14.35;;;11.00;;
47309;SDS011;33046;52.270;6.832;2023-02-07T04:34:13;12.98;;;8.95;;
47309;SDS011;33046;52.270;6.832;2023-02-07T04:36:20;11.70;;;9.38;;
47309;SDS011;33046;52.270;6.832;2023-02-07T04:38:27;14.57;;;10.38;;
47309;SDS011;33046;52.270;6.832;2023-02-07T04:40:37;15.90;;;10.98;;
47309;SDS011;33046;52.270;6.832;2023-02-07T04:42:44;21.13;;;11.18;;
47309;SDS011;33046;52.270;6.832;2023-02-07T04:44:51;12.38;;;9.30;;
47309;SDS011;33046;52.270;6.832;2023-02-07T04:46:58;15.88;;;10.43;;
47309;SDS011;33046;52.270;6.832;2023-02-07T04:49:04;11.32;;;9.40;;
47309;SDS011;33046;52.270;6.832;2023-02-07T04:51:11;14.68;;;10.43;;
47309;SDS011;33046;52.270;6.832;2023-02-07T04:53:18;15.68;;;9.73;;
47309;SDS011;33046;52.270;6.832;2023-02-07T04:55:25;16.67;;;10.25;;
47309;SDS011;33046;52.270;6.832;2023-02-07T04:57:33;15.25;;;11.45;;
47309;SDS011;33046;52.270;6.832;2023-02-07T04:59:40;15.43;;;10.10;;
47309;SDS011;33046;52.270;6.832;2023-02-07T05:01:47;14.60;;;10.07;;
47309;SDS011;33046;52.270;6.832;2023-02-07T05:03:54;15.02;;;9.52;;
47309;SDS011;33046;52.270;6.832;2023-02-07T05:06:01;13.57;;;10.48;;
47309;SDS011;33046;52.270;6.832;2023-02-07T05:08:08;16.50;;;10.73;;
47309;SDS011;33046;52.270;6.832;2023-02-07T05:10:16;14.60;;;9.93;;
47309;SDS011;33046;52.270;6.832;2023-02-07T05:12:23;13.93;;;9.30;;
47309;SDS011;33046;52.270;6.832;2023-02-07T05:14:31;16.73;;;10.80;;
47309;SDS011;33046;52.270;6.832;2023-02-07T05:16:38;13.68;;;9.18;;
47309;SDS011;33046;52.270;6.832;2023-02-07T05:18:45;15.00;;;10.68;;
47309;SDS011;33046;52.270;6.832;2023-02-07T05:20:52;15.23;;;10.55;;
47309;SDS011;33046;52.270;6.832;2023-02-07T05:22:58;15.10;;;10.27;;
47309;SDS011;33046;52.270;6.832;2023-02-07T05:25:05;17.60;;;11.27;;
47309;SDS011;33046;52.270;6.832;2023-02-07T05:27:12;11.95;;;9.65;;
47309;SDS011;33046;52.270;6.832;2023-02-07T05:29:19;11.38;;;9.32;;
47309;SDS011;33046;52.270;6.832;2023-02-07T05:31:27;14.35;;;10.55;;
47309;SDS011;33046;52.270;6.832;2023-02-07T05:33:35;16.00;;;11.13;;
47309;SDS011;33046;52.270;6.832;2023-02-07T05:35:42;14.48;;;10.20;;
47309;SDS011;33046;52.270;6.832;2023-02-07T05:37:49;18.13;;;10.45;;
47309;SDS011;33046;52.270;6.832;2023-02-07T05:39:56;14.90;;;10.85;;
47309;SDS011;33046;52.270;6.832;2023-02-07T05:42:03;17.67;;;10.38;;
47309;SDS011;33046;52.270;6.832;2023-02-07T05:44:10;13.88;;;9.00;;
47309;SDS011;33046;52.270;6.832;2023-02-07T05:46:16;15.20;;;10.55;;
47309;SDS011;33046;52.270;6.832;2023-02-07T05:48:25;16.67;;;10.65;;
47309;SDS011;33046;52.270;6.832;2023-02-07T05:50:32;14.63;;;9.38;;
47309;SDS011;33046;52.270;6.832;2023-02-07T05:52:47;15.32;;;10.07;;
47309;SDS011;33046;52.270;6.832;2023-02-07T05:54:54;12.73;;;9.68;;
47309;SDS011;33046;52.270;6.832;2023-02-07T05:57:01;12.75;;;10.40;;
47309;SDS011;33046;52.270;6.832;2023-02-07T05:59:08;14.20;;;10.82;;
47309;SDS011;33046;52.270;6.832;2023-02-07T06:01:15;15.38;;;10.10;;
47309;SDS011;33046;52.270;6.832;2023-02-07T06:03:22;18.85;;;11.55;;
47309;SDS011;33046;52.270;6.832;2023-02-07T06:05:30;14.25;;;9.98;;
47309;SDS011;33046;52.270;6.832;2023-02-07T06:07:38;14.10;;;10.95;;
47309;SDS011;33046;52.270;6.832;2023-02-07T06:09:45;12.68;;;9.63;;
47309;SDS011;33046;52.270;6.832;2023-02-07T06:11:52;13.38;;;9.48;;
47309;SDS011;33046;52.270;6.832;2023-02-07T06:13:58;16.42;;;11.00;;
47309;SDS011;33046;52.270;6.832;2023-02-07T06:16:05;13.13;;;10.38;;
47309;SDS011;33046;52.270;6.832;2023-02-07T06:18:12;15.85;;;11.50;;
47309;SDS011;33046;52.270;6.832;2023-02-07T06:20:19;16.27;;;9.93;;
47309;SDS011;33046;52.270;6.832;2023-02-07T06:22:27;17.05;;;10.32;;
47309;SDS011;33046;52.270;6.832;2023-02-07T06:24:34;15.77;;;10.82;;
47309;SDS011;33046;52.270;6.832;2023-02-07T06:26:41;13.07;;;9.40;;
47309;SDS011;33046;52.270;6.832;2023-02-07T06:28:48;13.45;;;9.82;;
47309;SDS011;33046;52.270;6.832;2023-02-07T06:30:55;16.33;;;10.68;;
47309;SDS011;33046;52.270;6.832;2023-02-07T06:33:02;13.73;;;9.45;;
47309;SDS011;33046;52.270;6.832;2023-02-07T06:35:09;15.10;;;10.52;;
47309;SDS011;33046;52.270;6.832;2023-02-07T06:37:15;13.57;;;8.75;;
47309;SDS011;33046;52.270;6.832;2023-02-07T06:39:24;11.82;;;10.02;;
47309;SDS011;33046;52.270;6.832;2023-02-07T06:41:31;12.52;;;8.85;;
47309;SDS011;33046;52.270;6.832;2023-02-07T06:43:38;15.30;;;10.75;;
47309;SDS011;33046;52.270;6.832;2023-02-07T06:45:45;15.43;;;9.60;;
47309;SDS011;33046;52.270;6.832;2023-02-07T06:47:51;14.60;;;10.63;;
47309;SDS011;33046;52.270;6.832;2023-02-07T06:49:58;16.98;;;9.82;;
47309;SDS011;33046;52.270;6.832;2023-02-07T06:52:05;12.27;;;9.60;;
47309;SDS011;33046;52.270;6.832;2023-02-07T06:54:12;14.88;;;10.52;;
47309;SDS011;33046;52.270;6.832;2023-02-07T06:56:20;11.45;;;9.57;;
47309;SDS011;33046;52.270;6.832;2023-02-07T06:58:27;11.55;;;9.70;;
47309;SDS011;33046;52.270;6.832;2023-02-07T07:00:34;15.32;;;10.90;;
47309;SDS011;33046;52.270;6.832;2023-02-07T07:02:41;14.70;;;10.77;;
47309;SDS011;33046;52.270;6.832;2023-02-07T07:04:47;12.68;;;9.52;;
47309;SDS011;33046;52.270;6.832;2023-02-07T07:06:54;15.20;;;10.68;;
47309;SDS011;33046;52.270;6.832;2023-02-07T07:09:01;14.88;;;10.73;;
47309;SDS011;33046;52.270;6.832;2023-02-07T07:11:08;15.63;;;11.07;;
47309;SDS011;33046;52.270;6.832;2023-02-07T07:13:16;12.07;;;10.35;;
47309;SDS011;33046;52.270;6.832;2023-02-07T07:15:23;12.63;;;10.35;;
47309;SDS011;33046;52.270;6.832;2023-02-07T07:17:30;13.50;;;11.02;;
47309;SDS011;33046;52.270;6.832;2023-02-07T07:19:37;17.42;;;11.15;;
47309;SDS011;33046;52.270;6.832;2023-02-07T07:21:44;14.10;;;10.95;;
47309;SDS011;33046;52.270;6.832;2023-02-07T07:23:50;13.95;;;10.75;;
47309;SDS011;33046;52.270;6.832;2023-02-07T07:25:57;14.23;;;10.82;;
47309;SDS011;33046;52.270;6.832;2023-02-07T07:28:04;15.00;;;10.40;;
47309;SDS011;33046;52.270;6.832;2023-02-07T07:30:13;15.32;;;10.32;;
47309;SDS011;33046;52.270;6.832;2023-02-07T07:32:20;13.75;;;9.30;;
47309;SDS011;33046;52.270;6.832;2023-02-07T07:34:38;14.07;;;9.85;;
47309;SDS011;33046;52.270;6.832;2023-02-07T07:36:45;19.08;;;11.00;;
47309;SDS011;33046;52.270;6.832;2023-02-07T07:38:52;14.60;;;10.40;;
47309;SDS011;33046;52.270;6.832;2023-02-07T07:40:59;14.82;;;10.38;;
47309;SDS011;33046;52.270;6.832;2023-02-07T07:43:06;14.38;;;9.75;;
47309;SDS011;33046;52.270;6.832;2023-02-07T07:45:25;13.30;;;9.82;;
47309;SDS011;33046;52.270;6.832;2023-02-07T07:47:32;15.70;;;10.57;;
47309;SDS011;33046;52.270;6.832;2023-02-07T07:49:39;17.38;;;11.77;;
47309;SDS011;33046;52.270;6.832;2023-02-07T07:51:46;13.43;;;9.50;;
47309;SDS011;33046;52.270;6.832;2023-02-07T07:53:52;15.45;;;10.00;;
47309;SDS011;33046;52.270;6.832;2023-02-07T07:55:59;11.63;;;10.05;;
47309;SDS011;33046;52.270;6.832;2023-02-07T07:58:06;16.25;;;9.68;;
47309;SDS011;33046;52.270;6.832;2023-02-07T08:00:13;13.25;;;9.80;;
47309;SDS011;33046;52.270;6.832;2023-02-07T08:02:23;13.02;;;10.25;;
47309;SDS011;33046;52.270;6.832;2023-02-07T08:04:29;11.07;;;9.95;;
47309;SDS011;33046;52.270;6.832;2023-02-07T08:06:36;12.38;;;9.73;;
47309;SDS011;33046;52.270;6.832;2023-02-07T08:08:43;14.27;;;10.85;;
47309;SDS011;33046;52.270;6.832;2023-02-07T08:10:50;15.90;;;10.38;;
47309;SDS011;33046;52.270;6.832;2023-02-07T08:12:57;14.85;;;11.50;;
47309;SDS011;33046;52.270;6.832;2023-02-07T08:15:04;14.48;;;11.15;;
47309;SDS011;33046;52.270;6.832;2023-02-07T08:17:12;14.57;;;10.00;;
47309;SDS011;33046;52.270;6.832;2023-02-07T08:19:20;15.35;;;10.20;;
47309;SDS011;33046;52.270;6.832;2023-02-07T08:21:27;14.57;;;10.55;;
47309;SDS011;33046;52.270;6.832;2023-02-07T08:23:34;14.82;;;12.52;;
47309;SDS011;33046;52.270;6.832;2023-02-07T08:25:41;14.27;;;11.32;;
47309;SDS011;33046;52.270;6.832;2023-02-07T08:27:48;14.60;;;11.18;;
47309;SDS011;33046;52.270;6.832;2023-02-07T08:29:54;13.93;;;10.27;;
47309;SDS011;33046;52.270;6.832;2023-02-07T08:32:01;15.50;;;11.80;;
47309;SDS011;33046;52.270;6.832;2023-02-07T08:34:08;14.98;;;9.98;;
47309;SDS011;33046;52.270;6.832;2023-02-07T08:36:16;14.70;;;11.60;;
47309;SDS011;33046;52.270;6.832;2023-02-07T08:38:23;14.88;;;10.63;;
47309;SDS011;33046;52.270;6.832;2023-02-07T08:40:30;16.80;;;10.95;;
47309;SDS011;33046;52.270;6.832;2023-02-07T08:42:37;14.75;;;10.70;;
47309;SDS011;33046;52.270;6.832;2023-02-07T08:44:44;13.20;;;10.73;;
47309;SDS011;33046;52.270;6.832;2023-02-07T08:46:51;15.02;;;11.02;;
47309;SDS011;33046;52.270;6.832;2023-02-07T08:48:57;17.13;;;10.82;;
47309;SDS011;33046;52.270;6.832;2023-02-07T08:51:04;15.02;;;10.65;;
47309;SDS011;33046;52.270;6.832;2023-02-07T08:53:13;16.95;;;11.40;;
47309;SDS011;33046;52.270;6.832;2023-02-07T08:55:20;13.32;;;10.52;;
47309;SDS011;33046;52.270;6.832;2023-02-07T08:57:27;11.65;;;9.60;;
47309;SDS011;33046;52.270;6.832;2023-02-07T08:59:34;12.82;;;10.50;;
47309;SDS011;33046;52.270;6.832;2023-02-07T09:01:41;13.02;;;11.60;;
47309;SDS011;33046;52.270;6.832;2023-02-07T09:03:48;12.05;;;10.55;;
47309;SDS011;33046;52.270;6.832;2023-02-07T09:05:56;15.60;;;11.38;;
47309;SDS011;33046;52.270;6.832;2023-02-07T09:08:03;13.90;;;10.98;;
47309;SDS011;33046;52.270;6.832;2023-02-07T09:10:11;14.82;;;11.02;;
47309;SDS011;33046;52.270;6.832;2023-02-07T09:12:18;14.15;;;10.45;;
47309;SDS011;33046;52.270;6.832;2023-02-07T09:14:25;14.35;;;11.88;;
47309;SDS011;33046;52.270;6.832;2023-02-07T09:16:32;16.98;;;10.65;;
47309;SDS011;33046;52.270;6.832;2023-02-07T09:18:39;11.68;;;10.30;;
47309;SDS011;33046;52.270;6.832;2023-02-07T09:20:46;14.38;;;9.45;;
47309;SDS011;33046;52.270;6.832;2023-02-07T09:22:53;15.45;;;10.63;;
47309;SDS011;33046;52.270;6.832;2023-02-07T09:25:00;13.80;;;10.80;;
47309;SDS011;33046;52.270;6.832;2023-02-07T09:27:08;14.60;;;10.07;;
47309;SDS011;33046;52.270;6.832;2023-02-07T09:29:15;11.93;;;10.15;;
47309;SDS011;33046;52.270;6.832;2023-02-07T09:31:22;11.35;;;9.30;;
47309;SDS011;33046;52.270;6.832;2023-02-07T09:33:29;13.43;;;9.70;;
47309;SDS011;33046;52.270;6.832;2023-02-07T09:35:36;13.55;;;10.52;;
47309;SDS011;33046;52.270;6.832;2023-02-07T09:37:43;12.07;;;9.50;;
47309;SDS011;33046;52.270;6.832;2023-02-07T09:39:55;10.30;;;9.20;;
47309;SDS011;33046;52.270;6.832;2023-02-07T09:42:03;9.52;;;8.63;;
47309;SDS011;33046;52.270;6.832;2023-02-07T09:44:21;11.57;;;9.32;;
47309;SDS011;33046;52.270;6.832;2023-02-07T09:46:34;10.87;;;8.37;;
47309;SDS011;33046;52.270;6.832;2023-02-07T09:48:44;14.27;;;8.63;;
47309;SDS011;33046;52.270;6.832;2023-02-07T09:50:54;9.70;;;7.60;;
47309;SDS011;33046;52.270;6.832;2023-02-07T09:53:05;10.43;;;8.07;;
47309;SDS011;33046;52.270;6.832;2023-02-07T09:55:22;11.75;;;8.13;;
47309;SDS011;33046;52.270;6.832;2023-02-07T09:57:33;10.57;;;7.72;;
47309;SDS011;33046;52.270;6.832;2023-02-07T09:59:46;8.07;;;6.65;;
47309;SDS011;33046;52.270;6.832;2023-02-07T10:01:58;8.35;;;7.55;;
47309;SDS011;33046;52.270;6.832;2023-02-07T10:04:14;10.45;;;6.85;;
47309;SDS011;33046;52.270;6.832;2023-02-07T10:06:31;8.93;;;6.82;;
47309;SDS011;33046;52.270;6.832;2023-02-07T10:08:40;10.65;;;7.13;;
47309;SDS011;33046;52.270;6.832;2023-02-07T10:10:48;8.27;;;7.05;;
47309;SDS011;33046;52.270;6.832;2023-02-07T10:13:17;8.93;;;7.07;;
47309;SDS011;33046;52.270;6.832;2023-02-07T10:15:38;8.82;;;6.43;;
47309;SDS011;33046;52.270;6.832;2023-02-07T10:17:58;7.82;;;5.80;;
47309;SDS011;33046;52.270;6.832;2023-02-07T10:20:25;7.38;;;5.50;;
47309;SDS011;33046;52.270;6.832;2023-02-07T10:22:38;8.02;;;5.15;;
47309;SDS011;33046;52.270;6.832;2023-02-07T10:25:03;8.77;;;5.53;;
47309;SDS011;33046;52.270;6.832;2023-02-07T10:27:21;6.22;;;5.57;;
47309;SDS011;33046;52.270;6.832;2023-02-07T10:29:42;6.30;;;5.75;;
47309;SDS011;33046;52.270;6.832;2023-02-07T10:32:01;8.02;;;6.32;;
47309;SDS011;33046;52.270;6.832;2023-02-07T10:34:16;9.15;;;6.97;;
47309;SDS011;33046;52.270;6.832;2023-02-07T10:36:26;5.70;;;4.90;;
47309;SDS011;33046;52.270;6.832;2023-02-07T10:38:37;5.65;;;4.57;;
47309;SDS011;33046;52.270;6.832;2023-02-07T10:40:51;6.38;;;4.90;;
47309;SDS011;33046;52.270;6.832;2023-02-07T10:43:02;5.28;;;3.70;;
47309;SDS011;33046;52.270;6.832;2023-02-07T10:45:12;5.95;;;4.97;;
47309;SDS011;33046;52.270;6.832;2023-02-07T10:47:20;5.55;;;4.47;;
47309;SDS011;33046;52.270;6.832;2023-02-07T10:49:27;6.57;;;4.68;;
47309;SDS011;33046;52.270;6.832;2023-02-07T10:51:36;5.03;;;4.13;;
47309;SDS011;33046;52.270;6.832;2023-02-07T10:53:47;7.22;;;5.15;;
47309;SDS011;33046;52.270;6.832;2023-02-07T10:56:00;5.07;;;4.45;;
47309;SDS011;33046;52.270;6.832;2023-02-07T10:58:12;5.43;;;4.20;;
47309;SDS011;33046;52.270;6.832;2023-02-07T11:00:29;6.10;;;4.30;;
47309;SDS011;33046;52.270;6.832;2023-02-07T11:02:47;5.15;;;4.65;;
47309;SDS011;33046;52.270;6.832;2023-02-07T11:04:56;5.13;;;4.35;;
47309;SDS011;33046;52.270;6.832;2023-02-07T11:07:05;5.07;;;4.13;;
47309;SDS011;33046;52.270;6.832;2023-02-07T11:09:18;5.32;;;4.15;;
47309;SDS011;33046;52.270;6.832;2023-02-07T11:11:28;5.85;;;4.05;;
47309;SDS011;33046;52.270;6.832;2023-02-07T11:13:43;6.90;;;4.80;;
47309;SDS011;33046;52.270;6.832;2023-02-07T11:15:55;6.07;;;4.55;;
47309;SDS011;33046;52.270;6.832;2023-02-07T11:18:04;5.60;;;5.07;;
47309;SDS011;33046;52.270;6.832;2023-02-07T11:20:14;5.03;;;4.20;;
47309;SDS011;33046;52.270;6.832;2023-02-07T11:22:25;6.50;;;4.60;;
47309;SDS011;33046;52.270;6.832;2023-02-07T11:24:34;5.20;;;4.40;;
47309;SDS011;33046;52.270;6.832;2023-02-07T11:26:48;5.90;;;4.45;;
47309;SDS011;33046;52.270;6.832;2023-02-07T11:29:04;8.68;;;4.38;;
47309;SDS011;33046;52.270;6.832;2023-02-07T11:31:14;6.55;;;4.00;;
47309;SDS011;33046;52.270;6.832;2023-02-07T11:33:24;5.05;;;4.00;;
47309;SDS011;33046;52.270;6.832;2023-02-07T11:35:32;5.32;;;4.10;;
47309;SDS011;33046;52.270;6.832;2023-02-07T11:37:44;6.10;;;4.47;;
47309;SDS011;33046;52.270;6.832;2023-02-07T11:39:54;4.95;;;4.18;;
47309;SDS011;33046;52.270;6.832;2023-02-07T11:42:08;4.40;;;4.00;;
47309;SDS011;33046;52.270;6.832;2023-02-07T11:44:17;7.00;;;4.30;;
47309;SDS011;33046;52.270;6.832;2023-02-07T11:46:35;5.47;;;3.75;;
47309;SDS011;33046;52.270;6.832;2023-02-07T11:48:46;5.28;;;3.90;;
47309;SDS011;33046;52.270;6.832;2023-02-07T11:50:58;4.53;;;3.65;;
47309;SDS011;33046;52.270;6.832;2023-02-07T11:53:14;5.95;;;5.03;;
47309;SDS011;33046;52.270;6.832;2023-02-07T11:55:26;4.97;;;4.18;;
47309;SDS011;33046;52.270;6.832;2023-02-07T11:57:38;5.07;;;3.90;;
47309;SDS011;33046;52.270;6.832;2023-02-07T11:59:46;5.00;;;4.00;;
47309;SDS011;33046;52.270;6.832;2023-02-07T12:02:00;5.60;;;4.07;;
47309;SDS011;33046;52.270;6.832;2023-02-07T12:04:20;7.20;;;5.75;;
47309;SDS011;33046;52.270;6.832;2023-02-07T12:06:32;5.47;;;4.70;;
47309;SDS011;33046;52.270;6.832;2023-02-07T12:08:43;5.13;;;4.63;;
47309;SDS011;33046;52.270;6.832;2023-02-07T12:10:51;6.30;;;3.92;;
47309;SDS011;33046;52.270;6.832;2023-02-07T12:13:02;6.35;;;4.60;;
47309;SDS011;33046;52.270;6.832;2023-02-07T12:15:12;4.93;;;4.43;;
47309;SDS011;33046;52.270;6.832;2023-02-07T12:17:26;4.65;;;3.75;;
47309;SDS011;33046;52.270;6.832;2023-02-07T12:19:41;6.68;;;5.30;;
47309;SDS011;33046;52.270;6.832;2023-02-07T12:21:58;5.95;;;4.90;;
47309;SDS011;33046;52.270;6.832;2023-02-07T12:24:09;5.38;;;4.68;;
47309;SDS011;33046;52.270;6.832;2023-02-07T12:26:21;5.13;;;4.30;;
47309;SDS011;33046;52.270;6.832;2023-02-07T12:28:32;4.70;;;4.25;;
47309;SDS011;33046;52.270;6.832;2023-02-07T12:30:45;5.63;;;4.00;;
47309;SDS011;33046;52.270;6.832;2023-02-07T12:32:59;5.28;;;3.90;;
47309;SDS011;33046;52.270;6.832;2023-02-07T12:35:14;6.40;;;5.20;;
47309;SDS011;33046;52.270;6.832;2023-02-07T12:37:25;6.97;;;4.50;;
47309;SDS011;33046;52.270;6.832;2023-02-07T12:39:39;6.38;;;5.13;;
47309;SDS011;33046;52.270;6.832;2023-02-07T12:41:52;6.38;;;4.40;;
47309;SDS011;33046;52.270;6.832;2023-02-07T12:44:07;4.25;;;3.60;;
47309;SDS011;33046;52.270;6.832;2023-02-07T12:46:27;4.03;;;3.33;;
47309;SDS011;33046;52.270;6.832;2023-02-07T12:48:46;6.30;;;3.95;;
47309;SDS011;33046;52.270;6.832;2023-02-07T12:51:07;4.55;;;3.22;;